sensor_id;sensor_type;location;lat;lon;timestamp;pressure;altitude;pressure_sealevel;temperature;humidity
47815;BME280;33579;50.058;18.130;2023-04-10T00:00:13;100112.63;;;6.44;100.00
47815;BME280;33579;50.058;18.130;2023-04-10T00:01:14;100113.72;;;6.40;100.00
47815;BME280;33579;50.058;18.130;2023-04-10T00:02:16;100109.41;;;6.39;100.00
47815;BME280;33579;50.058;18.130;2023-04-10T00:03:18;100110.34;;;6.38;100.00
47815;BME280;33579;50.058;18.130;2023-04-10T00:04:20;100107.72;;;6.38;100.00
47815;BME280;33579;50.058;18.130;2023-04-10T00:05:21;100109.59;;;6.36;100.00
47815;BME280;33579;50.058;18.130;2023-04-10T00:06:23;100109.66;;;6.34;100.00
47815;BME280;33579;50.058;18.130;2023-04-10T00:07:24;100102.00;;;6.31;100.00
47815;BME280;33579;50.058;18.130;2023-04-10T00:08:26;100109.66;;;6.34;100.00
47815;BME280;33579;50.058;18.130;2023-04-10T00:09:28;100099.91;;;6.38;100.00
47815;BME280;33579;50.058;18.130;2023-04-10T00:10:29;100104.00;;;6.42;100.00
47815;BME280;33579;50.058;18.130;2023-04-10T00:11:31;100097.88;;;6.43;100.00
47815;BME280;33579;50.058;18.130;2023-04-10T00:12:34;100108.34;;;6.43;100.00
47815;BME280;33579;50.058;18.130;2023-04-10T00:13:36;100104.53;;;6.49;100.00
47815;BME280;33579;50.058;18.130;2023-04-10T00:14:38;100097.09;;;6.57;100.00
47815;BME280;33579;50.058;18.130;2023-04-10T00:15:39;100101.16;;;6.63;100.00
47815;BME280;33579;50.058;18.130;2023-04-10T00:16:41;100096.66;;;6.65;100.00
47815;BME280;33579;50.058;18.130;2023-04-10T00:17:42;100093.97;;;6.66;100.00
47815;BME280;33579;50.058;18.130;2023-04-10T00:18:44;100089.84;;;6.62;100.00
47815;BME280;33579;50.058;18.130;2023-04-10T00:19:45;100097.59;;;6.64;100.00
47815;BME280;33579;50.058;18.130;2023-04-10T00:20:47;100094.84;;;6.67;100.00
47815;BME280;33579;50.058;18.130;2023-04-10T00:21:49;100097.09;;;6.73;100.00
47815;BME280;33579;50.058;18.130;2023-04-10T00:22:50;100092.44;;;6.78;100.00
47815;BME280;33579;50.058;18.130;2023-04-10T00:23:52;100095.63;;;6.83;100.00
47815;BME280;33579;50.058;18.130;2023-04-10T00:24:53;100095.38;;;6.88;100.00
47815;BME280;33579;50.058;18.130;2023-04-10T00:25:55;100095.28;;;6.89;100.00
47815;BME280;33579;50.058;18.130;2023-04-10T00:26:56;100090.97;;;6.88;100.00
47815;BME280;33579;50.058;18.130;2023-04-10T00:27:58;100093.69;;;6.87;100.00
47815;BME280;33579;50.058;18.130;2023-04-10T00:29:00;100091.16;;;6.85;100.00
47815;BME280;33579;50.058;18.130;2023-04-10T00:30:02;100100.38;;;6.77;100.00
47815;BME280;33579;50.058;18.130;2023-04-10T00:31:04;100104.75;;;6.76;100.00
47815;BME280;33579;50.058;18.130;2023-04-10T00:32:06;100100.38;;;6.77;100.00
47815;BME280;33579;50.058;18.130;2023-04-10T00:33:07;100098.50;;;6.79;100.00
47815;BME280;33579;50.058;18.130;2023-04-10T00:34:09;100100.28;;;6.78;100.00
47815;BME280;33579;50.058;18.130;2023-04-10T00:35:10;100101.19;;;6.77;100.00
47815;BME280;33579;50.058;18.130;2023-04-10T00:36:12;100098.94;;;6.71;100.00
47815;BME280;33579;50.058;18.130;2023-04-10T00:37:14;100101.38;;;6.74;100.00
47815;BME280;33579;50.058;18.130;2023-04-10T00:38:15;100101.31;;;6.75;100.00
47815;BME280;33579;50.058;18.130;2023-04-10T00:39:18;100102.25;;;6.74;100.00
47815;BME280;33579;50.058;18.130;2023-04-10T00:40:19;100100.56;;;6.73;100.00
47815;BME280;33579;50.058;18.130;2023-04-10T00:41:21;100098.09;;;6.70;100.00
47815;BME280;33579;50.058;18.130;2023-04-10T00:42:22;100098.19;;;6.69;100.00
47815;BME280;33579;50.058;18.130;2023-04-10T00:43:24;100096.41;;;6.69;100.00
47815;BME280;33579;50.058;18.130;2023-04-10T00:44:25;100103.44;;;6.69;100.00
47815;BME280;33579;50.058;18.130;2023-04-10T00:45:27;100104.19;;;6.71;100.00
47815;BME280;33579;50.058;18.130;2023-04-10T00:46:30;100098.19;;;6.69;100.00
47815;BME280;33579;50.058;18.130;2023-04-10T00:47:33;100100.56;;;6.73;100.00
47815;BME280;33579;50.058;18.130;2023-04-10T00:48:35;100097.16;;;6.71;100.00
47815;BME280;33579;50.058;18.130;2023-04-10T00:49:37;100096.41;;;6.69;100.00
47815;BME280;33579;50.058;18.130;2023-04-10T00:50:39;100098.03;;;6.72;100.00
47815;BME280;33579;50.058;18.130;2023-04-10T00:51:40;100098.78;;;6.74;100.00
47815;BME280;33579;50.058;18.130;2023-04-10T00:52:42;100097.94;;;6.73;100.00
47815;BME280;33579;50.058;18.130;2023-04-10T00:53:44;100096.91;;;6.76;100.00
47815;BME280;33579;50.058;18.130;2023-04-10T00:54:46;100102.31;;;6.73;100.00
47815;BME280;33579;50.058;18.130;2023-04-10T00:55:49;100102.25;;;6.74;100.00
47815;BME280;33579;50.058;18.130;2023-04-10T00:56:50;100105.88;;;6.72;100.00
47815;BME280;33579;50.058;18.130;2023-04-10T00:57:54;100099.28;;;6.65;100.00
47815;BME280;33579;50.058;18.130;2023-04-10T00:58:56;100101.16;;;6.63;100.00
47815;BME280;33579;50.058;18.130;2023-04-10T00:59:58;100099.91;;;6.54;100.00
47815;BME280;33579;50.058;18.130;2023-04-10T01:01:00;100103.50;;;6.51;100.00
47815;BME280;33579;50.058;18.130;2023-04-10T01:02:02;100108.66;;;6.53;100.00
47815;BME280;33579;50.058;18.130;2023-04-10T01:03:04;100109.84;;;6.47;100.00
47815;BME280;33579;50.058;18.130;2023-04-10T01:04:07;100110.53;;;6.51;100.00
47815;BME280;33579;50.058;18.130;2023-04-10T01:05:11;100109.50;;;6.53;100.00
47815;BME280;33579;50.058;18.130;2023-04-10T01:06:26;100102.75;;;6.49;100.00
47815;BME280;33579;50.058;18.130;2023-04-10T01:10:04;100103.34;;;6.22;100.00
47815;BME280;33579;50.058;18.130;2023-04-10T01:11:19;100102.09;;;6.13;100.00
47815;BME280;33579;50.058;18.130;2023-04-10T01:14:04;100095.00;;;5.98;100.00
47815;BME280;33579;50.058;18.130;2023-04-10T01:15:12;100095.19;;;5.95;100.00
47815;BME280;33579;50.058;18.130;2023-04-10T01:16:25;100091.66;;;5.96;100.00
47815;BME280;33579;50.058;18.130;2023-04-10T01:17:31;100091.88;;;5.91;100.00
47815;BME280;33579;50.058;18.130;2023-04-10T01:18:49;100094.44;;;5.93;100.00
47815;BME280;33579;50.058;18.130;2023-04-10T01:20:01;100099.59;;;5.94;100.00
47815;BME280;33579;50.058;18.130;2023-04-10T01:21:07;100099.41;;;5.97;100.00
47815;BME280;33579;50.058;18.130;2023-04-10T01:22:12;100093.25;;;5.98;100.00
47815;BME280;33579;50.058;18.130;2023-04-10T01:25:29;100095.66;;;6.03;100.00
47815;BME280;33579;50.058;18.130;2023-04-10T01:26:52;100093.13;;;6.01;100.00
47815;BME280;33579;50.058;18.130;2023-04-10T01:29:41;100088.16;;;6.13;100.00
47815;BME280;33579;50.058;18.130;2023-04-10T01:30:47;100081.94;;;6.15;100.00
47815;BME280;33579;50.058;18.130;2023-04-10T01:32:12;100083.56;;;6.18;100.00
47815;BME280;33579;50.058;18.130;2023-04-10T01:33:20;100089.44;;;6.22;100.00
47815;BME280;33579;50.058;18.130;2023-04-10T01:34:27;100096.19;;;6.26;100.00
47815;BME280;33579;50.058;18.130;2023-04-10T01:35:31;100092.53;;;6.28;100.00
47815;BME280;33579;50.058;18.130;2023-04-10T01:36:39;100093.81;;;6.21;100.00
47815;BME280;33579;50.058;18.130;2023-04-10T01:37:41;100095.44;;;6.24;100.00
47815;BME280;33579;50.058;18.130;2023-04-10T01:38:44;100089.78;;;6.31;100.00
47815;BME280;33579;50.058;18.130;2023-04-10T01:39:50;100096.34;;;6.39;100.00
47815;BME280;33579;50.058;18.130;2023-04-10T01:40:53;100093.47;;;6.43;100.00
47815;BME280;33579;50.058;18.130;2023-04-10T01:42:04;100099.41;;;6.47;100.00
47815;BME280;33579;50.058;18.130;2023-04-10T01:43:10;100098.38;;;6.50;100.00
47815;BME280;33579;50.058;18.130;2023-04-10T01:44:23;100097.28;;;6.54;100.00
47815;BME280;33579;50.058;18.130;2023-04-10T01:45:27;100101.56;;;6.55;100.00
47815;BME280;33579;50.058;18.130;2023-04-10T01:46:29;100091.97;;;6.39;100.00
47815;BME280;33579;50.058;18.130;2023-04-10T01:47:32;100095.03;;;6.31;100.00
47815;BME280;33579;50.058;18.130;2023-04-10T01:48:34;100092.72;;;6.25;100.00
47815;BME280;33579;50.058;18.130;2023-04-10T01:49:38;100100.56;;;6.25;100.00
47815;BME280;33579;50.058;18.130;2023-04-10T01:50:40;100095.50;;;6.22;100.00
47815;BME280;33579;50.058;18.130;2023-04-10T01:51:43;100088.84;;;6.16;100.00
47815;BME280;33579;50.058;18.130;2023-04-10T01:52:46;100094.06;;;6.16;100.00
47815;BME280;33579;50.058;18.130;2023-04-10T01:53:54;100098.31;;;6.19;100.00
47815;BME280;33579;50.058;18.130;2023-04-10T01:55:01;100098.53;;;6.14;100.00
47815;BME280;33579;50.058;18.130;2023-04-10T01:56:14;100095.69;;;6.19;100.00
47815;BME280;33579;50.058;18.130;2023-04-10T01:57:19;100096.94;;;6.28;100.00
47815;BME280;33579;50.058;18.130;2023-04-10T01:58:27;100100.91;;;6.35;100.00
47815;BME280;33579;50.058;18.130;2023-04-10T01:59:31;100096.09;;;6.43;100.00
47815;BME280;33579;50.058;18.130;2023-04-10T02:00:40;100094.75;;;6.52;100.00
47815;BME280;33579;50.058;18.130;2023-04-10T02:01:43;100102.31;;;6.57;100.00
47815;BME280;33579;50.058;18.130;2023-04-10T02:02:45;100094.22;;;6.61;100.00
47815;BME280;33579;50.058;18.130;2023-04-10T02:03:47;100094.06;;;6.65;100.00
47815;BME280;33579;50.058;18.130;2023-04-10T02:04:49;100095.59;;;6.69;100.00
47815;BME280;33579;50.058;18.130;2023-04-10T02:07:10;100098.19;;;6.69;100.00
47815;BME280;33579;50.058;18.130;2023-04-10T02:08:23;100095.59;;;6.69;100.00
47815;BME280;33579;50.058;18.130;2023-04-10T02:11:33;100105.19;;;6.68;100.00
47815;BME280;33579;50.058;18.130;2023-04-10T02:12:57;100101.81;;;6.66;100.00
47815;BME280;33579;50.058;18.130;2023-04-10T02:14:03;100108.81;;;6.66;100.00
47815;BME280;33579;50.058;18.130;2023-04-10T02:15:07;100109.09;;;6.61;100.00
47815;BME280;33579;50.058;18.130;2023-04-10T02:16:13;100108.06;;;6.64;100.00
47815;BME280;33579;50.058;18.130;2023-04-10T02:17:19;100106.31;;;6.64;100.00
47815;BME280;33579;50.058;18.130;2023-04-10T02:18:25;100109.84;;;6.63;100.00
47815;BME280;33579;50.058;18.130;2023-04-10T02:19:27;100114.31;;;6.61;100.00
47815;BME280;33579;50.058;18.130;2023-04-10T02:20:31;100115.16;;;6.61;100.00
47815;BME280;33579;50.058;18.130;2023-04-10T02:21:33;100108.16;;;6.62;100.00
47815;BME280;33579;50.058;18.130;2023-04-10T02:22:35;100113.22;;;6.65;100.00
47815;BME280;33579;50.058;18.130;2023-04-10T02:23:37;100110.53;;;6.67;100.00
47815;BME280;33579;50.058;18.130;2023-04-10T02:24:39;100113.78;;;6.70;100.00
47815;BME280;33579;50.058;18.130;2023-04-10T02:25:41;100111.03;;;6.73;100.00
47815;BME280;33579;50.058;18.130;2023-04-10T02:26:52;100107.56;;;6.73;100.00
47815;BME280;33579;50.058;18.130;2023-04-10T02:27:54;100109.97;;;6.76;100.00
47815;BME280;33579;50.058;18.130;2023-04-10T02:28:55;100104.75;;;6.76;100.00
47815;BME280;33579;50.058;18.130;2023-04-10T02:29:57;100103.81;;;6.77;100.00
47815;BME280;33579;50.058;18.130;2023-04-10T02:30:59;100108.03;;;6.80;100.00
47815;BME280;33579;50.058;18.130;2023-04-10T02:32:01;100107.38;;;6.76;100.00
47815;BME280;33579;50.058;18.130;2023-04-10T02:33:04;100109.00;;;6.63;100.00
47815;BME280;33579;50.058;18.130;2023-04-10T02:34:06;100108.06;;;6.47;100.00
47815;BME280;33579;50.058;18.130;2023-04-10T02:35:07;100103.44;;;6.37;100.00
47815;BME280;33579;50.058;18.130;2023-04-10T02:36:11;100102.19;;;6.28;100.00
47815;BME280;33579;50.058;18.130;2023-04-10T02:37:12;100106.88;;;6.21;100.00
47815;BME280;33579;50.058;18.130;2023-04-10T02:38:14;100100.91;;;6.19;100.00
47815;BME280;33579;50.058;18.130;2023-04-10T02:39:17;100107.22;;;6.15;100.00
47815;BME280;33579;50.058;18.130;2023-04-10T02:40:23;100108.38;;;6.09;100.00
47815;BME280;33579;50.058;18.130;2023-04-10T02:41:43;100102.41;;;6.07;100.00
47815;BME280;33579;50.058;18.130;2023-04-10T02:42:46;100098.34;;;6.01;100.00
47815;BME280;33579;50.058;18.130;2023-04-10T02:43:48;100103.41;;;6.04;100.00
47815;BME280;33579;50.058;18.130;2023-04-10T02:44:52;100101.72;;;6.03;100.00
47815;BME280;33579;50.058;18.130;2023-04-10T02:45:53;100096.50;;;6.03;100.00
47815;BME280;33579;50.058;18.130;2023-04-10T02:47:00;100094.88;;;6.01;100.00
47815;BME280;33579;50.058;18.130;2023-04-10T02:48:04;100094.19;;;5.97;100.00
47815;BME280;33579;50.058;18.130;2023-04-10T02:49:06;100093.56;;;5.92;100.00
47815;BME280;33579;50.058;18.130;2023-04-10T02:50:08;100089.78;;;5.98;100.00
47815;BME280;33579;50.058;18.130;2023-04-10T02:51:12;100108.31;;;6.11;100.00
47815;BME280;33579;50.058;18.130;2023-04-10T02:52:14;100103.66;;;6.16;100.00
47815;BME280;33579;50.058;18.130;2023-04-10T02:53:16;100097.94;;;6.25;100.00
47815;BME280;33579;50.058;18.130;2023-04-10T02:54:17;100105.28;;;6.35;100.00
47815;BME280;33579;50.058;18.130;2023-04-10T02:55:19;100091.22;;;6.37;100.00
47815;BME280;33579;50.058;18.130;2023-04-10T02:56:20;100092.66;;;6.43;100.00
47815;BME280;33579;50.058;18.130;2023-04-10T02:57:22;100100.06;;;6.51;100.00
47815;BME280;33579;50.058;18.130;2023-04-10T02:58:24;100095.50;;;6.54;100.00
47815;BME280;33579;50.058;18.130;2023-04-10T02:59:28;100099.81;;;6.55;100.00
47815;BME280;33579;50.058;18.130;2023-04-10T03:00:30;100096.16;;;6.58;100.00
47815;BME280;33579;50.058;18.130;2023-04-10T03:01:38;100096.84;;;6.61;100.00
47815;BME280;33579;50.058;18.130;2023-04-10T03:02:40;100105.28;;;6.67;100.00
47815;BME280;33579;50.058;18.130;2023-04-10T03:03:49;100097.16;;;6.71;100.00
47815;BME280;33579;50.058;18.130;2023-04-10T03:05:00;100100.44;;;6.75;100.00
47815;BME280;33579;50.058;18.130;2023-04-10T03:06:02;100098.59;;;6.77;100.00
47815;BME280;33579;50.058;18.130;2023-04-10T03:07:07;100099.38;;;6.79;100.00
47815;BME280;33579;50.058;18.130;2023-04-10T03:08:12;100095.63;;;6.83;100.00
47815;BME280;33579;50.058;18.130;2023-04-10T03:09:14;100105.09;;;6.86;100.00
47815;BME280;33579;50.058;18.130;2023-04-10T03:10:16;100108.47;;;6.88;100.00
47815;BME280;33579;50.058;18.130;2023-04-10T03:11:17;100096.22;;;6.88;100.00
47815;BME280;33579;50.058;18.130;2023-04-10T03:12:19;100103.78;;;6.93;100.00
47815;BME280;33579;50.058;18.130;2023-04-10T03:13:20;100106.53;;;6.92;100.00
47815;BME280;33579;50.058;18.130;2023-04-10T03:14:22;100105.66;;;6.91;100.00
47815;BME280;33579;50.058;18.130;2023-04-10T03:15:23;100106.34;;;6.95;100.00
47815;BME280;33579;50.058;18.130;2023-04-10T03:16:25;100102.78;;;6.96;100.00
47815;BME280;33579;50.058;18.130;2023-04-10T03:17:27;100101.94;;;6.95;100.00
47815;BME280;33579;50.058;18.130;2023-04-10T03:18:28;100100.16;;;6.96;100.00
47815;BME280;33579;50.058;18.130;2023-04-10T03:19:30;100088.78;;;6.97;100.00
47815;BME280;33579;50.058;18.130;2023-04-10T03:20:32;100102.53;;;7.00;100.00
47815;BME280;33579;50.058;18.130;2023-04-10T03:21:34;100099.06;;;7.00;100.00
47815;BME280;33579;50.058;18.130;2023-04-10T03:22:37;100097.38;;;6.99;100.00
47815;BME280;33579;50.058;18.130;2023-04-10T03:23:40;100097.19;;;7.02;100.00
47815;BME280;33579;50.058;18.130;2023-04-10T03:24:41;100100.84;;;6.99;100.00
47815;BME280;33579;50.058;18.130;2023-04-10T03:25:43;100100.16;;;6.96;100.00
47815;BME280;33579;50.058;18.130;2023-04-10T03:26:44;100098.38;;;6.96;100.00
47815;BME280;33579;50.058;18.130;2023-04-10T03:27:46;100097.44;;;6.97;100.00
47815;BME280;33579;50.058;18.130;2023-04-10T03:28:48;100099.22;;;6.97;100.00
47815;BME280;33579;50.058;18.130;2023-04-10T03:29:49;100102.69;;;6.97;100.00
47815;BME280;33579;50.058;18.130;2023-04-10T03:30:51;100101.78;;;6.98;100.00
47815;BME280;33579;50.058;18.130;2023-04-10T03:31:53;100101.00;;;6.96;100.00
47815;BME280;33579;50.058;18.130;2023-04-10T03:32:54;100102.78;;;6.96;100.00
47815;BME280;33579;50.058;18.130;2023-04-10T03:33:56;100101.94;;;6.95;100.00
47815;BME280;33579;50.058;18.130;2023-04-10T03:34:58;100102.97;;;6.93;100.00
47815;BME280;33579;50.058;18.130;2023-04-10T03:36:00;100102.03;;;6.94;100.00
47815;BME280;33579;50.058;18.130;2023-04-10T03:37:01;100094.19;;;6.94;100.00
47815;BME280;33579;50.058;18.130;2023-04-10T03:38:03;100093.25;;;6.95;100.00
47815;BME280;33579;50.058;18.130;2023-04-10T03:39:04;100094.94;;;6.96;100.00
47815;BME280;33579;50.058;18.130;2023-04-10T03:40:09;100097.44;;;6.97;100.00
47815;BME280;33579;50.058;18.130;2023-04-10T03:41:10;100094.00;;;6.97;100.00
47815;BME280;33579;50.058;18.130;2023-04-10T03:42:12;100091.31;;;6.98;100.00
47815;BME280;33579;50.058;18.130;2023-04-10T03:43:14;100093.16;;;6.96;100.00
47815;BME280;33579;50.058;18.130;2023-04-10T03:44:16;100095.38;;;6.88;100.00
47815;BME280;33579;50.058;18.130;2023-04-10T03:45:17;100093.22;;;6.80;100.00
47815;BME280;33579;50.058;18.130;2023-04-10T03:46:19;100094.41;;;6.74;100.00
47815;BME280;33579;50.058;18.130;2023-04-10T03:47:21;100093.78;;;6.69;100.00
47815;BME280;33579;50.058;18.130;2023-04-10T03:48:24;100091.09;;;6.71;100.00
47815;BME280;33579;50.058;18.130;2023-04-10T03:49:26;100094.41;;;6.74;100.00
47815;BME280;33579;50.058;18.130;2023-04-10T03:50:35;100095.97;;;6.77;100.00
47815;BME280;33579;50.058;18.130;2023-04-10T03:51:38;100090.00;;;6.75;100.00
47815;BME280;33579;50.058;18.130;2023-04-10T03:52:40;100095.09;;;6.62;100.00
47815;BME280;33579;50.058;18.130;2023-04-10T03:53:46;100092.63;;;6.59;100.00
47815;BME280;33579;50.058;18.130;2023-04-10T03:54:49;100089.63;;;6.51;100.00
47815;BME280;33579;50.058;18.130;2023-04-10T03:55:58;100093.22;;;6.48;100.00
47815;BME280;33579;50.058;18.130;2023-04-10T03:57:00;100093.06;;;6.51;100.00
47815;BME280;33579;50.058;18.130;2023-04-10T03:58:02;100090.13;;;6.57;100.00
47815;BME280;33579;50.058;18.130;2023-04-10T03:59:04;100096.03;;;6.61;100.00
47815;BME280;33579;50.058;18.130;2023-04-10T04:00:13;100092.47;;;6.62;100.00
47815;BME280;33579;50.058;18.130;2023-04-10T04:01:21;100088.25;;;6.59;100.00
47815;BME280;33579;50.058;18.130;2023-04-10T04:02:32;100092.38;;;6.47;100.00
47815;BME280;33579;50.058;18.130;2023-04-10T04:03:34;100095.84;;;6.48;100.00
47815;BME280;33579;50.058;18.130;2023-04-10T04:04:59;100099.47;;;6.45;100.00
47815;BME280;33579;50.058;18.130;2023-04-10T04:06:20;100095.59;;;6.37;100.00
47815;BME280;33579;50.058;18.130;2023-04-10T04:07:40;100093.34;;;6.30;100.00
47815;BME280;33579;50.058;18.130;2023-04-10T04:09:16;100101.31;;;6.27;100.00
47815;BME280;33579;50.058;18.130;2023-04-10T04:10:31;100101.56;;;6.23;100.00
47815;BME280;33579;50.058;18.130;2023-04-10T04:11:51;100098.19;;;6.21;100.00
47815;BME280;33579;50.058;18.130;2023-04-10T04:13:10;100099.31;;;6.16;100.00
47815;BME280;33579;50.058;18.130;2023-04-10T04:14:38;100100.13;;;6.17;100.00
47815;BME280;33579;50.058;18.130;2023-04-10T04:15:58;100102.56;;;6.04;100.00
47815;BME280;33579;50.058;18.130;2023-04-10T04:17:26;100101.97;;;5.99;100.00
47815;BME280;33579;50.058;18.130;2023-04-10T04:18:37;100104.44;;;6.02;100.00
47815;BME280;33579;50.058;18.130;2023-04-10T04:20:02;100096.59;;;6.02;100.00
47815;BME280;33579;50.058;18.130;2023-04-10T04:21:29;100105.97;;;5.88;100.00
47815;BME280;33579;50.058;18.130;2023-04-10T04:22:57;100106.38;;;5.81;100.00
47815;BME280;33579;50.058;18.130;2023-04-10T04:24:13;100107.91;;;5.85;100.00
47815;BME280;33579;50.058;18.130;2023-04-10T04:25:44;100108.13;;;5.80;100.00
47815;BME280;33579;50.058;18.130;2023-04-10T04:27:03;100105.13;;;5.88;100.00
47815;BME280;33579;50.058;18.130;2023-04-10T04:28:22;100113.16;;;6.01;100.00
47815;BME280;33579;50.058;18.130;2023-04-10T04:29:42;100117.84;;;6.12;100.00
47815;BME280;33579;50.058;18.130;2023-04-10T04:31:18;100127.81;;;6.21;100.00
47815;BME280;33579;50.058;18.130;2023-04-10T04:32:52;100122.97;;;6.29;100.00
47815;BME280;33579;50.058;18.130;2023-04-10T04:34:12;100123.59;;;6.35;100.00
47815;BME280;33579;50.058;18.130;2023-04-10T04:35:37;100127.88;;;6.36;100.00
47815;BME280;33579;50.058;18.130;2023-04-10T04:37:14;100132.94;;;6.39;100.00
47815;BME280;33579;50.058;18.130;2023-04-10T04:38:35;100125.03;;;6.40;100.00
47815;BME280;33579;50.058;18.130;2023-04-10T04:40:06;100127.53;;;6.42;100.00
47815;BME280;33579;50.058;18.130;2023-04-10T04:41:21;100128.47;;;6.41;100.00
47815;BME280;33579;50.058;18.130;2023-04-10T04:42:38;100130.31;;;6.23;100.00
47815;BME280;33579;50.058;18.130;2023-04-10T04:44:05;100131.44;;;6.01;100.00
47815;BME280;33579;50.058;18.130;2023-04-10T04:45:22;100135.47;;;5.90;100.00
47815;BME280;33579;50.058;18.130;2023-04-10T04:46:40;100128.84;;;5.83;100.00
47815;BME280;33579;50.058;18.130;2023-04-10T04:48:03;100133.41;;;5.80;100.00
47815;BME280;33579;50.058;18.130;2023-04-10T04:49:31;100134.97;;;5.66;100.00
47815;BME280;33579;50.058;18.130;2023-04-10T04:50:52;100135.19;;;5.61;100.00
47815;BME280;33579;50.058;18.130;2023-04-10T04:52:11;100128.28;;;5.60;100.00
47815;BME280;33579;50.058;18.130;2023-04-10T04:53:16;100126.69;;;5.58;100.00
47815;BME280;33579;50.058;18.130;2023-04-10T04:54:41;100124.22;;;5.55;100.00
47815;BME280;33579;50.058;18.130;2023-04-10T04:56:03;100126.81;;;5.55;100.00
47815;BME280;33579;50.058;18.130;2023-04-10T04:57:25;100124.22;;;5.55;100.00
47815;BME280;33579;50.058;18.130;2023-04-10T04:58:50;100122.53;;;5.54;100.00
47815;BME280;33579;50.058;18.130;2023-04-10T05:00:26;100123.38;;;5.54;100.00
47815;BME280;33579;50.058;18.130;2023-04-10T05:01:40;100126.22;;;5.49;100.00
47815;BME280;33579;50.058;18.130;2023-04-10T05:03:07;100122.41;;;5.57;100.00
47815;BME280;33579;50.058;18.130;2023-04-10T05:04:09;100135.88;;;5.65;100.00
47815;BME280;33579;50.058;18.130;2023-04-10T05:05:29;100121.59;;;5.72;100.00
47815;BME280;33579;50.058;18.130;2023-04-10T05:06:46;100127.19;;;5.82;100.00
47815;BME280;33579;50.058;18.130;2023-04-10T05:07:56;100133.53;;;5.94;100.00
47815;BME280;33579;50.058;18.130;2023-04-10T05:09:16;100136.38;;;6.07;100.00
47815;BME280;33579;50.058;18.130;2023-04-10T05:10:29;100139.25;;;6.18;100.00
47815;BME280;33579;50.058;18.130;2023-04-10T05:11:47;100141.38;;;6.28;100.00
47815;BME280;33579;50.058;18.130;2023-04-10T05:13:12;100143.66;;;6.34;100.00
47815;BME280;33579;50.058;18.130;2023-04-10T05:14:27;100138.09;;;6.40;100.00
47815;BME280;33579;50.058;18.130;2023-04-10T05:15:39;100142.16;;;6.46;100.00
47815;BME280;33579;50.058;18.130;2023-04-10T05:16:40;100141.97;;;6.49;100.00
47815;BME280;33579;50.058;18.130;2023-04-10T05:17:45;100142.22;;;6.44;100.00
47815;BME280;33579;50.058;18.130;2023-04-10T05:19:09;100130.00;;;6.29;100.00
47815;BME280;33579;50.058;18.130;2023-04-10T05:20:34;100135.19;;;6.13;100.00
47815;BME280;33579;50.058;18.130;2023-04-10T05:21:43;100136.63;;;6.18;100.00
47815;BME280;33579;50.058;18.130;2023-04-10T05:23:17;100128.28;;;6.12;100.00
47815;BME280;33579;50.058;18.130;2023-04-10T05:24:19;100128.28;;;6.12;100.00
47815;BME280;33579;50.058;18.130;2023-04-10T05:25:43;100124.91;;;6.10;100.00
47815;BME280;33579;50.058;18.130;2023-04-10T05:27:05;100126.78;;;6.08;100.00
47815;BME280;33579;50.058;18.130;2023-04-10T05:28:32;100128.47;;;6.09;100.00
47815;BME280;33579;50.058;18.130;2023-04-10T05:29:54;100137.06;;;6.11;100.00
47815;BME280;33579;50.058;18.130;2023-04-10T05:31:16;100141.09;;;6.16;100.00
47815;BME280;33579;50.058;18.130;2023-04-10T05:32:43;100138.91;;;6.09;100.00
47815;BME280;33579;50.058;18.130;2023-04-10T05:34:03;100134.09;;;6.17;100.00
47815;BME280;33579;50.058;18.130;2023-04-10T05:35:17;100132.28;;;6.19;100.00
47815;BME280;33579;50.058;18.130;2023-04-10T05:36:31;100129.22;;;6.11;100.00
47815;BME280;33579;50.058;18.130;2023-04-10T05:37:49;100137.91;;;6.11;100.00
47815;BME280;33579;50.058;18.130;2023-04-10T05:39:03;100139.50;;;6.14;100.00
47815;BME280;33579;50.058;18.130;2023-04-10T05:40:11;100135.19;;;6.13;100.00
47815;BME280;33579;50.058;18.130;2023-04-10T05:41:45;100151.22;;;6.23;100.00
47815;BME280;33579;50.058;18.130;2023-04-10T05:42:49;100158.66;;;6.30;100.00
47815;BME280;33579;50.058;18.130;2023-04-10T05:43:58;100147.78;;;6.38;100.00
47815;BME280;33579;50.058;18.130;2023-04-10T05:45:38;100151.44;;;6.52;100.00
47815;BME280;33579;50.058;18.130;2023-04-10T05:47:09;100147.28;;;6.64;100.00
47815;BME280;33579;50.058;18.130;2023-04-10T05:48:14;100152.09;;;6.71;100.00
47815;BME280;33579;50.058;18.130;2023-04-10T05:49:51;100158.59;;;6.80;100.00
47815;BME280;33579;50.058;18.130;2023-04-10T05:51:11;100164.41;;;6.85;100.00
47815;BME280;33579;50.058;18.130;2023-04-10T05:52:30;100163.28;;;6.89;100.00
47815;BME280;33579;50.058;18.130;2023-04-10T05:53:40;100162.22;;;6.94;100.00
47815;BME280;33579;50.058;18.130;2023-04-10T05:55:02;100155.78;;;6.99;100.00
47815;BME280;33579;50.058;18.130;2023-04-10T05:56:06;100161.66;;;7.03;100.00
47815;BME280;33579;50.058;18.130;2023-04-10T05:57:28;100169.09;;;7.11;100.00
47815;BME280;33579;50.058;18.130;2023-04-10T05:58:50;100162.94;;;7.12;100.00
47815;BME280;33579;50.058;18.130;2023-04-10T06:00:18;100164.19;;;7.21;100.00
47815;BME280;33579;50.058;18.130;2023-04-10T06:01:58;100165.69;;;7.25;100.00
47815;BME280;33579;50.058;18.130;2023-04-10T06:03:00;100166.34;;;7.28;100.00
47815;BME280;33579;50.058;18.130;2023-04-10T06:04:02;100165.34;;;7.31;100.00
47815;BME280;33579;50.058;18.130;2023-04-10T06:05:04;100163.72;;;7.28;100.00